createdAt,value
2022-12-23T00:01:26.686Z,100521.50
2022-12-23T00:03:56.631Z,100520.72
2022-12-23T00:06:23.181Z,100518.84
2022-12-23T00:08:49.706Z,100525.22
2022-12-23T00:11:19.117Z,100520.72
2022-12-23T00:14:04.656Z,100528.97
2022-12-23T00:16:31.369Z,100530.53
2022-12-23T00:18:57.894Z,100536.66
2022-12-23T00:21:24.407Z,100543.53
2022-12-23T00:23:51.805Z,100550.69
2022-12-23T00:26:24.525Z,100553.63
2022-12-23T00:28:51.506Z,100557.88
2022-12-23T00:31:19.194Z,100558.66
2022-12-23T00:33:48.979Z,100549.91
2022-12-23T00:36:18.417Z,100554.41
2022-12-23T00:39:04.581Z,100559.22
2022-12-23T00:41:50.198Z,100561.09
2022-12-23T00:44:16.980Z,100568.25
2022-12-23T00:46:43.643Z,100562.44
2022-12-23T00:49:31.494Z,100565.88
2022-12-23T00:51:58.735Z,100561.94
2022-12-23T00:54:25.351Z,100560.34
2022-12-23T00:56:51.869Z,100563.00
2022-12-23T00:59:18.454Z,100574.72
2022-12-23T01:02:03.558Z,100568.63
2022-12-23T01:04:48.895Z,100583.72
2022-12-23T01:07:15.482Z,100582.94
2022-12-23T01:09:41.982Z,100577.63
2022-12-23T01:12:08.714Z,100582.16
2022-12-23T01:14:35.929Z,100585.09
2022-12-23T01:17:02.939Z,100584.03
2022-12-23T01:19:29.511Z,100577.91
2022-12-23T01:21:56.166Z,100584.31
2022-12-23T01:24:22.956Z,100584.59
2022-12-23T01:26:49.534Z,100596.28
2022-12-23T01:29:16.136Z,100599.72
2022-12-23T01:31:42.711Z,100601.59
2022-12-23T01:34:10.645Z,100602.94
2022-12-23T01:36:37.230Z,100602.94
2022-12-23T01:39:04.433Z,100617.78
2022-12-23T01:41:51.214Z,100612.75
2022-12-23T01:44:49.253Z,100620.72
2022-12-23T01:47:34.194Z,100623.34
2022-12-23T01:50:15.314Z,100615.69
2022-12-23T01:52:49.666Z,100627.38
2022-12-23T01:55:20.963Z,100624.72
2022-12-23T01:57:48.521Z,100631.13
2022-12-23T02:00:34.371Z,100637.19
2022-12-23T02:03:19.464Z,100642.50
2022-12-23T02:05:47.467Z,100656.81
2022-12-23T02:08:50.821Z,100655.78
2022-12-23T02:11:34.441Z,100655.25
2022-12-23T02:14:22.398Z,100656.03
2022-12-23T02:17:00.582Z,100660.06
2022-12-23T02:20:05.664Z,100667.22
2022-12-23T02:23:10.160Z,100667.22
2022-12-23T02:25:54.534Z,100669.88
2022-12-23T02:28:55.520Z,100676.25
2022-12-23T02:31:59.660Z,100684.47
2022-12-23T02:34:54.704Z,100691.66
2022-12-23T02:37:30.072Z,100689.28
2022-12-23T02:40:24.467Z,100695.66
2022-12-23T02:43:19.326Z,100693.28
2022-12-23T02:45:55.229Z,100692.50
2022-12-23T02:48:37.422Z,100699.94
2022-12-23T02:51:07.940Z,100706.28
2022-12-23T02:53:38.420Z,100706.28
2022-12-23T02:56:08.804Z,100708.16
2022-12-23T02:58:42.214Z,100714.25
2022-12-23T03:01:11.393Z,100724.66
2022-12-23T03:03:40.139Z,100724.91
2022-12-23T03:06:18.104Z,100725.97
2022-12-23T03:08:45.705Z,100726.53
2022-12-23T03:11:15.544Z,100726.81
2022-12-23T03:14:18.728Z,100728.69
2022-12-23T03:16:53.781Z,100717.28
2022-12-23T03:19:34.007Z,100722.84
2022-12-23T03:22:25.930Z,100717.59
2022-12-23T03:24:55.541Z,100717.34
2022-12-23T03:27:36.477Z,100714.72
2022-12-23T03:30:08.449Z,100717.63
2022-12-23T03:32:44.027Z,100715.25
2022-12-23T03:35:16.182Z,100714.19
2022-12-23T03:37:45.783Z,100720.84
2022-12-23T03:40:19.716Z,100717.38
2022-12-23T03:42:51.581Z,100719.75
2022-12-23T03:45:38.645Z,100718.97
2022-12-23T03:48:13.829Z,100732.78
2022-12-23T03:50:43.052Z,100731.97
2022-12-23T03:53:17.035Z,100731.97
2022-12-23T03:55:59.265Z,100729.34
2022-12-23T03:58:39.727Z,100723.25
2022-12-23T04:01:37.223Z,100722.97
2022-12-23T04:04:11.393Z,100736.78
2022-12-23T04:06:51.871Z,100748.47
2022-12-23T04:09:22.371Z,100746.59
2022-12-23T04:11:49.734Z,100751.09
2022-12-23T04:14:21.086Z,100754.53
2022-12-23T04:16:49.732Z,100752.94
2022-12-23T04:19:16.543Z,100760.09
2022-12-23T04:21:43.041Z,100768.84
2022-12-23T04:24:09.576Z,100776.81
2022-12-23T04:26:36.119Z,100771.50
2022-12-23T04:29:02.740Z,100778.94
2022-12-23T04:31:29.318Z,100779.75
2022-12-23T04:33:55.821Z,100777.38
2022-12-23T04:36:22.328Z,100774.44
2022-12-23T04:38:49.067Z,100772.84
2022-12-23T04:41:15.696Z,100768.63
2022-12-23T04:43:42.597Z,100773.38
2022-12-23T04:46:10.207Z,100764.63
2022-12-23T04:48:36.786Z,100769.16
2022-12-23T04:51:03.784Z,100766.19
2022-12-23T04:53:30.306Z,100762.75
2022-12-23T04:55:56.851Z,100753.25
2022-12-23T04:58:25.104Z,100759.31
2022-12-23T05:01:02.088Z,100759.06
2022-12-23T05:03:29.031Z,100769.66
2022-12-23T05:05:55.618Z,100761.19
2022-12-23T05:08:22.572Z,100760.91
2022-12-23T05:10:49.222Z,100754.81
2022-12-23T05:13:15.911Z,100759.31
2022-12-23T05:15:46.076Z,100760.38
2022-12-23T05:18:12.972Z,100763.53
2022-12-23T05:20:40.212Z,100760.91
2022-12-23T05:23:06.978Z,100768.06
2022-12-23T05:25:35.222Z,100772.56
2022-12-23T05:28:02.510Z,100775.22
2022-12-23T05:30:29.714Z,100783.19
2022-12-23T05:32:57.160Z,100781.59
2022-12-23T05:35:25.540Z,100786.88
2022-12-23T05:37:52.741Z,100791.41
2022-12-23T05:40:23.648Z,100795.66
2022-12-23T05:42:51.474Z,100795.66
2022-12-23T05:45:18.148Z,100807.56
2022-12-23T05:47:44.685Z,100812.34
2022-12-23T05:50:11.886Z,100811.25
2022-12-23T05:52:38.631Z,100806.25
2022-12-23T05:55:06.055Z,100800.97
2022-12-23T05:57:32.686Z,100807.31
2022-12-23T05:59:59.299Z,100804.66
2022-12-23T06:02:25.882Z,100800.16
2022-12-23T06:04:52.510Z,100799.34
2022-12-23T06:07:18.990Z,100793.28
2022-12-23T06:09:45.629Z,100798.56
2022-12-23T06:12:12.323Z,100793.53
2022-12-23T06:14:38.921Z,100802.28
2022-12-23T06:17:05.543Z,100798.06
2022-12-23T06:19:32.057Z,100795.41
2022-12-23T06:21:58.798Z,100786.66
2022-12-23T06:24:25.387Z,100782.41
2022-12-23T06:26:56.691Z,100777.91
2022-12-23T06:29:24.322Z,100778.97
2022-12-23T06:31:51.021Z,100772.06
2022-12-23T06:34:18.053Z,100783.50
2022-12-23T06:36:44.651Z,100781.63
2022-12-23T06:39:11.599Z,100781.63
2022-12-23T06:41:38.309Z,100789.84
2022-12-23T06:44:05.382Z,100789.06
2022-12-23T06:46:32.025Z,100789.84
2022-12-23T06:48:58.632Z,100795.41
2022-12-23T06:51:25.095Z,100799.94
2022-12-23T06:53:51.714Z,100805.22
2022-12-23T06:56:18.809Z,100813.19
2022-12-23T06:58:45.454Z,100816.63
2022-12-23T07:01:14.954Z,100804.44
2022-12-23T07:03:41.701Z,100815.03
2022-12-23T07:06:08.267Z,100821.13
2022-12-23T07:08:34.859Z,100814.78
2022-12-23T07:11:03.496Z,100828.03
2022-12-23T07:13:31.667Z,100824.31
2022-12-23T07:15:58.811Z,100824.31
2022-12-23T07:18:26.221Z,100829.59
2022-12-23T07:20:53.071Z,100836.50
2022-12-23T07:23:19.619Z,100841.00
2022-12-23T07:25:46.175Z,100842.59
2022-12-23T07:28:12.679Z,100839.16
2022-12-23T07:30:39.355Z,100848.69
2022-12-23T07:33:06.000Z,100840.72
2022-12-23T07:35:32.784Z,100843.13
2022-12-23T07:37:59.428Z,100845.22
2022-12-23T07:40:26.626Z,100842.28
2022-12-23T07:42:58.084Z,100826.84
2022-12-23T07:45:26.093Z,100820.97
2022-12-23T07:47:56.111Z,100818.78
2022-12-23T07:50:23.033Z,100822.47
2022-12-23T07:52:49.576Z,100821.88
2022-12-23T07:55:16.337Z,100819.69
2022-12-23T07:57:42.938Z,100818.31
2022-12-23T08:00:11.816Z,100813.47
2022-12-23T08:02:38.419Z,100822.97
2022-12-23T08:05:08.716Z,100820.03
2022-12-23T08:07:35.608Z,100813.56
2022-12-23T08:10:02.989Z,100813.53
2022-12-23T08:12:29.720Z,100816.13
2022-12-23T08:14:56.323Z,100807.06
2022-12-23T08:17:26.350Z,100806.25
2022-12-23T08:19:53.451Z,100807.78
2022-12-23T08:22:20.174Z,100808.78
2022-12-23T08:24:46.768Z,100803.97
2022-12-23T08:27:17.107Z,100806.31
2022-12-23T08:29:43.657Z,100817.13
2022-12-23T08:32:10.295Z,100802.22
2022-12-23T08:34:36.846Z,100804.06
2022-12-23T08:37:03.442Z,100790.19
2022-12-23T08:39:30.020Z,100786.69
2022-12-23T08:41:56.626Z,100779.22
2022-12-23T08:44:23.294Z,100783.19
2022-12-23T08:46:50.020Z,100788.97
2022-12-23T08:49:16.579Z,100788.44
2022-12-23T08:51:49.092Z,100779.09
2022-12-23T08:54:15.951Z,100775.06
2022-12-23T08:56:42.614Z,100768.13
2022-12-23T08:59:18.988Z,100763.31
2022-12-23T09:01:47.348Z,100756.34
2022-12-23T09:04:16.242Z,100761.13
2022-12-23T09:06:43.765Z,100760.03
2022-12-23T09:09:13.044Z,100754.94
2022-12-23T09:11:39.868Z,100751.22
2022-12-23T09:14:08.670Z,100745.31
2022-12-23T09:16:35.810Z,100740.78
2022-12-23T09:19:02.930Z,100745.53
2022-12-23T09:21:29.508Z,100753.72
2022-12-23T09:23:56.115Z,100740.91
2022-12-23T09:26:25.686Z,100744.06
2022-12-23T09:28:52.935Z,100737.69
2022-12-23T09:31:20.617Z,100736.91
2022-12-23T09:33:49.195Z,100740.84
2022-12-23T09:36:16.679Z,100738.69
2022-12-23T09:38:43.287Z,100746.09
2022-12-23T09:41:35.564Z,100739.19
2022-12-23T09:44:08.005Z,100740.50
2022-12-23T09:46:38.392Z,100738.59
2022-12-23T09:49:11.678Z,100737.53
2022-12-23T09:51:38.559Z,100729.28
2022-12-23T09:54:19.059Z,100721.00
2022-12-23T09:56:53.235Z,100724.47
2022-12-23T09:59:44.717Z,100710.56
2022-12-23T10:02:23.507Z,100691.97
2022-12-23T10:05:02.968Z,100684.47
2022-12-23T10:07:52.501Z,100681.53
2022-12-23T10:10:37.211Z,100673.25
2022-12-23T10:13:07.223Z,100663.69
2022-12-23T10:15:40.963Z,100659.94
2022-12-23T10:18:20.394Z,100651.97
2022-12-23T10:20:52.900Z,100659.66
2022-12-23T10:23:30.358Z,100657.28
2022-12-23T10:25:57.057Z,100650.91
2022-12-23T10:28:23.650Z,100644.47
2022-12-23T10:31:38.555Z,100646.56
2022-12-23T10:34:12.676Z,100646.28
2022-12-23T10:36:52.087Z,100647.06
2022-12-23T10:39:35.424Z,100641.47
2022-12-23T10:42:10.707Z,100638.81
2022-12-23T10:45:18.917Z,100641.16
2022-12-23T10:48:00.102Z,100635.03
2022-12-23T10:50:29.364Z,100634.75
2022-12-23T10:52:59.658Z,100628.84
2022-12-23T10:55:33.733Z,100631.22
2022-12-23T10:58:14.496Z,100629.34
2022-12-23T11:00:46.518Z,100627.47
2022-12-23T11:03:19.288Z,100612.59
2022-12-23T11:05:49.810Z,100613.88
2022-12-23T11:08:16.629Z,100611.22
2022-12-23T11:10:43.331Z,100601.38
2022-12-23T11:13:09.869Z,100602.16
2022-12-23T11:15:39.971Z,100593.88
2022-12-23T11:18:06.443Z,100590.13
2022-12-23T11:20:35.116Z,100596.22
2022-12-23T11:23:03.720Z,100596.72
2022-12-23T11:25:35.533Z,100595.94
2022-12-23T11:28:22.326Z,100597.22
2022-12-23T11:30:56.586Z,100595.06
2022-12-23T11:33:28.434Z,100590.81
2022-12-23T11:36:03.266Z,100579.09
2022-12-23T11:38:30.815Z,100570.81
2022-12-23T11:40:57.875Z,100561.25
2022-12-23T11:43:26.708Z,100555.13
2022-12-23T11:46:26.452Z,100534.66
2022-12-23T11:49:13.763Z,100521.03
2022-12-23T11:51:43.965Z,100520.03
2022-12-23T11:54:19.631Z,100516.31
2022-12-23T11:56:52.929Z,100512.56
2022-12-23T11:59:37.137Z,100490.28
2022-12-23T12:02:12.856Z,100487.63
2022-12-23T12:04:41.929Z,100496.91
2022-12-23T12:07:13.545Z,100484.66
2022-12-23T12:09:42.326Z,100476.19
2022-12-23T12:12:17.173Z,100479.63
2022-12-23T12:14:54.541Z,100474.63
2022-12-23T12:17:27.983Z,100467.16
2022-12-23T12:20:18.795Z,100462.91
2022-12-23T12:22:54.713Z,100466.66
2022-12-23T12:25:33.939Z,100464.00
2022-12-23T12:28:07.133Z,100471.16
2022-12-23T12:30:40.165Z,100464.00
2022-12-23T12:33:23.220Z,100443.47
2022-12-23T12:36:03.371Z,100438.16
2022-12-23T12:38:34.787Z,100419.81
2022-12-23T12:41:16.082Z,100412.13
2022-12-23T12:43:52.683Z,100422.78
2022-12-23T12:46:32.671Z,100401.00
2022-12-23T12:49:24.951Z,100399.94
2022-12-23T12:51:58.856Z,100383.97
2022-12-23T12:54:31.974Z,100383.19
2022-12-23T12:56:59.996Z,100373.91
2022-12-23T12:59:31.321Z,100372.84
2022-12-23T13:02:22.855Z,100362.69
2022-12-23T13:05:15.808Z,100367.22
2022-12-23T13:07:55.841Z,100362.97
2022-12-23T13:10:31.311Z,100349.66
2022-12-23T13:13:04.500Z,100352.03
2022-12-23T13:15:45.093Z,100350.94
2022-12-23T13:18:37.160Z,100346.72
2022-12-23T13:21:19.059Z,100345.94
2022-12-23T13:24:03.435Z,100342.19
2022-12-23T13:26:37.199Z,100349.38
2022-12-23T13:29:57.813Z,100348.28
2022-12-23T13:33:05.183Z,100340.28
2022-12-23T13:35:50.155Z,100331.53
2022-12-23T13:38:41.145Z,100333.22
2022-12-23T13:41:21.895Z,100327.91
2022-12-23T13:43:57.890Z,100335.88
2022-12-23T13:46:38.440Z,100344.66
2022-12-23T13:49:19.999Z,100343.66
2022-12-23T13:51:57.059Z,100328.53
2022-12-23T13:54:47.516Z,100309.91
2022-12-23T13:57:46.696Z,100308.00
2022-12-23T14:00:19.012Z,100291.28
2022-12-23T14:02:52.010Z,100288.91
2022-12-23T14:05:38.957Z,100288.13
2022-12-23T14:08:31.597Z,100272.94
2022-12-23T14:11:02.680Z,100253.84
2022-12-23T14:13:40.801Z,100243.31
2022-12-23T14:16:25.637Z,100241.25
2022-12-23T14:19:14.237Z,100248.47
2022-12-23T14:21:57.399Z,100253.28
2022-12-23T14:24:48.457Z,100255.47
2022-12-23T14:27:30.156Z,100258.13
2022-12-23T14:30:15.563Z,100247.50
2022-12-23T14:32:48.260Z,100227.78
2022-12-23T14:35:36.950Z,100235.75
2022-12-23T14:38:24.511Z,100238.13
2022-12-23T14:40:54.618Z,100235.44
2022-12-23T14:43:52.695Z,100248.75
2022-12-23T14:46:37.211Z,100247.66
2022-12-23T14:49:37.068Z,100249.25
2022-12-23T14:51:51.055Z,100254.25
2022-12-23T14:54:36.660Z,100269.41
2022-12-23T14:57:16.936Z,100264.91
2022-12-23T14:59:56.930Z,100264.91
2022-12-23T15:02:35.348Z,100250.50
2022-12-23T15:05:02.623Z,100243.31
2022-12-23T15:07:34.797Z,100244.41
2022-12-23T15:10:05.466Z,100246.28
2022-12-23T15:12:37.252Z,100236.72
2022-12-23T15:15:25.483Z,100234.84
2022-12-23T15:18:11.601Z,100227.19
2022-12-23T15:20:39.102Z,100233.09
2022-12-23T15:23:14.951Z,100219.97
2022-12-23T15:25:46.101Z,100223.72
2022-12-23T15:28:19.118Z,100235.66
2022-12-23T15:30:52.754Z,100239.56
2022-12-23T15:36:11.642Z,100217.31
2022-12-23T15:38:39.351Z,100219.97
2022-12-23T15:41:15.614Z,100213.56
2022-12-23T15:43:43.464Z,100224.81
2022-12-23T15:46:16.933Z,100232.50
2022-12-23T15:48:43.934Z,100208.56
2022-12-23T15:54:29.543Z,100219.00
2022-12-23T15:56:57.808Z,100231.53
2022-12-23T15:59:29.303Z,100235.25
2022-12-23T16:01:56.229Z,100240.59
2022-12-23T16:04:27.012Z,100234.19
2022-12-23T16:06:55.172Z,100242.16
2022-12-23T16:09:21.698Z,100248.75
2022-12-23T16:11:56.416Z,100251.13
2022-12-23T16:14:50.173Z,100252.38
2022-12-23T16:17:30.334Z,100247.84
2022-12-23T16:20:20.490Z,100250.22
2022-12-23T16:22:51.193Z,100249.09
2022-12-23T16:25:23.060Z,100241.44
2022-12-23T16:27:56.937Z,100234.25
2022-12-23T16:30:34.033Z,100230.00
2022-12-23T16:33:03.350Z,100231.09
2022-12-23T16:35:30.048Z,100227.66
2022-12-23T16:38:16.961Z,100223.91
2022-12-23T16:40:49.519Z,100224.69
2022-12-23T16:43:16.881Z,100244.09
2022-12-23T16:45:45.043Z,100241.13
2022-12-23T16:48:20.523Z,100234.72
2022-12-23T16:50:48.631Z,100240.06
2022-12-23T16:53:15.800Z,100250.06
2022-12-23T16:55:50.226Z,100250.88
2022-12-23T16:58:18.015Z,100247.59
2022-12-23T17:00:44.954Z,100252.34
2022-12-23T17:03:19.719Z,100261.09
2022-12-23T17:05:47.518Z,100251.22
2022-12-23T17:08:14.081Z,100258.13
2022-12-23T17:10:42.462Z,100253.88
2022-12-23T17:13:11.765Z,100269.38
2022-12-23T17:15:38.364Z,100270.75
2022-12-23T17:18:15.305Z,100268.09
2022-12-23T17:20:44.828Z,100256.06
2022-12-23T17:23:31.079Z,100249.34
2022-12-23T17:25:57.995Z,100263.28
2022-12-23T17:28:31.137Z,100272.94
2022-12-23T17:30:58.944Z,100277.03
2022-12-23T17:33:29.590Z,100268.00
2022-12-23T17:35:56.392Z,100265.50
2022-12-23T17:38:23.565Z,100264.59
2022-12-23T17:40:50.774Z,100258.38
2022-12-23T17:43:21.655Z,100265.25
2022-12-23T17:45:48.413Z,100271.97
2022-12-23T17:48:20.191Z,100257.09
2022-12-23T17:50:48.058Z,100258.97
2022-12-23T17:53:18.150Z,100253.84
2022-12-23T17:55:45.209Z,100260.72
2022-12-23T17:58:14.416Z,100267.31
2022-12-23T18:00:41.416Z,100263.09
2022-12-23T18:03:21.623Z,100264.66
2022-12-23T18:05:48.294Z,100262.00
2022-12-23T18:08:14.999Z,100265.63
2022-12-23T18:10:41.821Z,100269.06
2022-12-23T18:13:14.217Z,100275.94
2022-12-23T18:15:43.363Z,100276.75
2022-12-23T18:18:17.926Z,100271.94
2022-12-23T18:20:51.444Z,100280.69
2022-12-23T18:23:31.305Z,100289.03
2022-12-23T18:25:58.779Z,100284.19
2022-12-23T18:28:25.750Z,100288.72
2022-12-23T18:30:54.763Z,100290.31
2022-12-23T18:33:21.954Z,100293.91
2022-12-23T18:35:49.560Z,100297.88
2022-12-23T18:38:17.695Z,100305.22
2022-12-23T18:40:44.943Z,100300.38
2022-12-23T18:43:20.536Z,100303.06
2022-12-23T18:45:52.446Z,100309.16
2022-12-23T18:48:19.992Z,100313.50
2022-12-23T18:50:46.794Z,100318.25
2022-12-23T18:53:24.554Z,100331.06
2022-12-23T18:55:52.905Z,100326.22
2022-12-23T18:58:20.538Z,100329.66
2022-12-23T19:00:48.637Z,100331.25
2022-12-23T19:03:42.012Z,100331.56
2022-12-23T19:06:11.889Z,100337.34
2022-12-23T19:08:39.115Z,100337.66
2022-12-23T19:11:18.430Z,100342.19
2022-12-23T19:13:45.405Z,100340.03
2022-12-23T19:16:17.473Z,100339.72
2022-12-23T19:18:45.340Z,100343.47
2022-12-23T19:21:12.602Z,100344.56
2022-12-23T19:23:41.023Z,100347.72
2022-12-23T19:26:10.410Z,100337.94
2022-12-23T19:28:38.286Z,100347.81
2022-12-23T19:31:14.794Z,100344.38
2022-12-23T19:33:45.881Z,100352.56
2022-12-23T19:36:19.608Z,100358.47
2022-12-23T19:38:46.819Z,100354.41
2022-12-23T19:41:13.440Z,100369.59
2022-12-23T19:43:42.749Z,100365.25
2022-12-23T19:46:15.575Z,100370.69
2022-12-23T19:48:42.634Z,100377.09
2022-12-23T19:51:12.869Z,100370.38
2022-12-23T19:53:40.873Z,100375.22
2022-12-23T19:56:12.026Z,100391.66
2022-12-23T19:58:40.848Z,100384.50
2022-12-23T20:01:16.639Z,100391.66
2022-12-23T20:03:44.572Z,100397.81
2022-12-23T20:06:17.275Z,100406.28
2022-12-23T20:08:43.987Z,100411.94
2022-12-23T20:11:19.597Z,100416.00
2022-12-23T20:13:46.433Z,100409.78
2022-12-23T20:16:13.669Z,100414.13
2022-12-23T20:18:40.361Z,100415.72
2022-12-23T20:21:07.018Z,100414.63
2022-12-23T20:23:34.668Z,100427.94
2022-12-23T20:26:01.321Z,100420.91
2022-12-23T20:28:28.196Z,100424.19
2022-12-23T20:31:01.161Z,100423.38
2022-12-23T20:33:27.820Z,100435.81
2022-12-23T20:35:54.410Z,100440.03
2022-12-23T20:38:20.959Z,100444.59
2022-12-23T20:40:47.444Z,100438.16
2022-12-23T20:43:15.511Z,100451.94
2022-12-23T20:45:43.921Z,100451.16
2022-12-23T20:48:10.565Z,100451.47
2022-12-23T20:50:41.333Z,100462.94
2022-12-23T20:53:09.038Z,100466.38
2022-12-23T20:55:35.527Z,100471.69
2022-12-23T20:58:22.284Z,100472.75
2022-12-23T21:00:49.210Z,100482.63
2022-12-23T21:03:15.812Z,100501.28
2022-12-23T21:05:42.489Z,100498.31
2022-12-23T21:08:09.211Z,100490.25
2022-12-23T21:10:35.806Z,100494.59
2022-12-23T21:13:03.810Z,100505.53
2022-12-23T21:15:33.534Z,100503.28
2022-12-23T21:18:00.210Z,100512.16
2022-12-23T21:20:26.716Z,100509.41
2022-12-23T21:22:53.342Z,100517.78
2022-12-23T21:25:19.993Z,100514.13
2022-12-23T21:27:46.520Z,100526.75
2022-12-23T21:30:13.355Z,100519.94
2022-12-23T21:32:40.180Z,100520.56
2022-12-23T21:35:07.227Z,100532.38
2022-12-23T21:37:33.739Z,100543.28
2022-12-23T21:40:00.201Z,100546.84
2022-12-23T21:42:26.729Z,100546.63
2022-12-23T21:44:53.370Z,100553.81
2022-12-23T21:47:20.155Z,100541.41
2022-12-23T21:49:47.032Z,100546.53
2022-12-23T21:52:13.747Z,100572.63
2022-12-23T21:54:40.323Z,100563.66
2022-12-23T21:57:06.853Z,100563.94
2022-12-23T21:59:35.424Z,100569.56
2022-12-23T22:02:02.371Z,100572.78
2022-12-23T22:04:28.917Z,100573.09
2022-12-23T22:06:55.467Z,100582.91
2022-12-23T22:09:22.109Z,100579.75
2022-12-23T22:11:49.240Z,100592.56
2022-12-23T22:14:17.854Z,100595.81
2022-12-23T22:16:44.527Z,100599.63
2022-12-23T22:19:12.031Z,100601.53
2022-12-23T22:21:42.607Z,100609.09
2022-12-23T22:24:09.541Z,100620.59
2022-12-23T22:26:36.405Z,100625.97
2022-12-23T22:29:06.014Z,100626.84
2022-12-23T22:31:47.398Z,100628.75
2022-12-23T22:34:19.971Z,100633.84
2022-12-23T22:36:47.127Z,100635.22
2022-12-23T22:39:20.113Z,100645.63
2022-12-23T22:41:48.062Z,100649.09
2022-12-23T22:44:15.071Z,100651.22
2022-12-23T22:46:42.075Z,100659.47
2022-12-23T22:49:12.176Z,100662.13
2022-12-23T22:51:40.450Z,100664.28
2022-12-23T22:54:07.667Z,100658.47
2022-12-23T22:56:34.182Z,100658.75
2022-12-23T22:59:00.737Z,100667.28
2022-12-23T23:01:30.480Z,100673.38
2022-12-23T23:03:58.858Z,100676.84
2022-12-23T23:06:27.496Z,100671.50
2022-12-23T23:08:55.060Z,100673.13
2022-12-23T23:11:22.397Z,100682.94
2022-12-23T23:13:49.143Z,100682.13
2022-12-23T23:16:15.959Z,100681.09
2022-12-23T23:18:42.766Z,100681.09
2022-12-23T23:21:12.412Z,100690.63
2022-12-23T23:23:38.969Z,100690.34
2022-12-23T23:26:05.791Z,100689.28
2022-12-23T23:28:32.354Z,100688.47
2022-12-23T23:31:17.179Z,100696.44
2022-12-23T23:33:45.460Z,100698.03
2022-12-23T23:36:12.048Z,100706.78
2022-12-23T23:38:38.653Z,100715.25
2022-12-23T23:41:05.525Z,100710.44
2022-12-23T23:43:32.240Z,100713.38
2022-12-23T23:45:59.180Z,100724.00
2022-12-23T23:48:25.743Z,100721.34
2022-12-23T23:50:52.356Z,100731.19
2022-12-23T23:53:18.851Z,100739.16
2022-12-23T23:55:45.424Z,100741.81
2022-12-23T23:58:12.341Z,100741.81
